WMT411 LIPQ-LATI
Flight info
| Callsign | WMT411 |
|---|---|
| Flight time | 1h 5m |
| Altitude | 37000 |
| Route | RCH DCT GIRDA DCT KENEM DCT MADOS |
| Aircraft | A321/M-SDE1E2E3FGIJ1J4RWXY/LB1 |
Departure
| Time | 2026-04-29 11:19 |
|---|---|
| Airport | Trieste Airport (LIPQ) |
Arrival
| Time | 2026-04-29 12:24 |
|---|---|
| Airport | Tirana International Airport Mother Teresa (LATI) |
| Time | Latitude | Longitude | Altitude | Speed | Heading |
|---|---|---|---|---|---|
| 2026-04-29 10:49 | 45.82312 | 13.48457 | 46 ft | 0 kts | 351° |
| 2026-04-29 10:51 | 45.82311 | 13.48457 | 46 ft | 0 kts | 351° |
| 2026-04-29 11:08 | 45.82313 | 13.48455 | 46 ft | 1 kts | 339° |
| 2026-04-29 11:09 | 45.82314 | 13.48450 | 43 ft | 0 kts | 304° |
| 2026-04-29 11:09 | 45.82313 | 13.48445 | 44 ft | 0 kts | 272° |
| 2026-04-29 11:09 | 45.82309 | 13.48436 | 44 ft | 2 kts | 238° |
| 2026-04-29 11:09 | 45.82287 | 13.48409 | 46 ft | 7 kts | 224° |
| 2026-04-29 11:10 | 45.82264 | 13.48361 | 46 ft | 4 kts | 246° |
| 2026-04-29 11:10 | 45.82256 | 13.48323 | 46 ft | 5 kts | 257° |
| 2026-04-29 11:10 | 45.82264 | 13.48266 | 46 ft | 8 kts | 301° |
| 2026-04-29 11:10 | 45.82295 | 13.48213 | 46 ft | 5 kts | 318° |
| 2026-04-29 11:11 | 45.82312 | 13.48193 | 46 ft | 1 kts | 320° |
| 2026-04-29 11:11 | 45.82313 | 13.48191 | 46 ft | 1 kts | 320° |
| 2026-04-29 11:11 | 45.82325 | 13.48178 | 46 ft | 4 kts | 321° |
| 2026-04-29 11:11 | 45.82355 | 13.48143 | 46 ft | 8 kts | 320° |
| 2026-04-29 11:12 | 45.82409 | 13.48076 | 46 ft | 12 kts | 319° |
| 2026-04-29 11:12 | 45.82474 | 13.47996 | 46 ft | 12 kts | 319° |
| 2026-04-29 11:12 | 45.82531 | 13.47926 | 46 ft | 10 kts | 319° |
| 2026-04-29 11:12 | 45.82578 | 13.47861 | 46 ft | 9 kts | 311° |
| 2026-04-29 11:13 | 45.82608 | 13.47793 | 46 ft | 7 kts | 290° |
| 2026-04-29 11:13 | 45.82614 | 13.47726 | 46 ft | 6 kts | 272° |
| 2026-04-29 11:13 | 45.82615 | 13.47670 | 46 ft | 5 kts | 271° |
| 2026-04-29 11:13 | 45.82615 | 13.47622 | 46 ft | 4 kts | 270° |
| 2026-04-29 11:14 | 45.82616 | 13.47580 | 46 ft | 4 kts | 270° |
| 2026-04-29 11:14 | 45.82616 | 13.47533 | 46 ft | 5 kts | 270° |
| 2026-04-29 11:14 | 45.82616 | 13.47469 | 47 ft | 8 kts | 270° |
| 2026-04-29 11:14 | 45.82617 | 13.47373 | 47 ft | 11 kts | 270° |
| 2026-04-29 11:15 | 45.82618 | 13.47245 | 46 ft | 15 kts | 270° |
| 2026-04-29 11:15 | 45.82618 | 13.47084 | 46 ft | 18 kts | 270° |
| 2026-04-29 11:15 | 45.82621 | 13.46897 | 46 ft | 19 kts | 272° |
| 2026-04-29 11:15 | 45.82622 | 13.46705 | 46 ft | 20 kts | 270° |
| 2026-04-29 11:16 | 45.82622 | 13.46505 | 46 ft | 20 kts | 270° |
| 2026-04-29 11:16 | 45.82622 | 13.46297 | 46 ft | 21 kts | 270° |
| 2026-04-29 11:16 | 45.82622 | 13.46082 | 47 ft | 22 kts | 270° |
| 2026-04-29 11:16 | 45.82625 | 13.45862 | 44 ft | 21 kts | 274° |
| 2026-04-29 11:17 | 45.82631 | 13.45694 | 47 ft | 14 kts | 271° |
| 2026-04-29 11:17 | 45.82663 | 13.45591 | 47 ft | 11 kts | 341° |
| 2026-04-29 11:17 | 45.82740 | 13.45579 | 48 ft | 11 kts | 356° |
| 2026-04-29 11:17 | 45.82788 | 13.45645 | 49 ft | 11 kts | 73° |
| 2026-04-29 11:18 | 45.82793 | 13.45758 | 49 ft | 15 kts | 90° |
| 2026-04-29 11:18 | 45.82792 | 13.46272 | 46 ft | 89 kts | 90° |
| 2026-04-29 11:18 | 45.82785 | 13.47473 | 48 ft | 149 kts | 90° |
| 2026-04-29 11:18 | 45.82759 | 13.49099 | 386 ft | 169 kts | 95° |
| 2026-04-29 11:19 | 45.82293 | 13.50654 | 1075 ft | 175 kts | 128° |
| 2026-04-29 11:19 | 45.81247 | 13.51639 | 1593 ft | 194 kts | 158° |
| 2026-04-29 11:19 | 45.79811 | 13.51528 | 1736 ft | 227 kts | 202° |
| 2026-04-29 11:19 | 45.78611 | 13.49914 | 1891 ft | 256 kts | 242° |
| 2026-04-29 11:20 | 45.78318 | 13.47345 | 2326 ft | 269 kts | 283° |
| 2026-04-29 11:20 | 45.79139 | 13.44993 | 3091 ft | 266 kts | 319° |
| 2026-04-29 11:20 | 45.80666 | 13.43569 | 3889 ft | 262 kts | 340° |
| 2026-04-29 11:20 | 45.82351 | 13.42560 | 4702 ft | 265 kts | 330° |
| 2026-04-29 11:21 | 45.83595 | 13.40607 | 5451 ft | 272 kts | 295° |
| 2026-04-29 11:21 | 45.83951 | 13.37942 | 6244 ft | 276 kts | 270° |
| 2026-04-29 11:21 | 45.83824 | 13.35202 | 7104 ft | 275 kts | 267° |
| 2026-04-29 11:21 | 45.84151 | 13.32537 | 7887 ft | 276 kts | 297° |
| 2026-04-29 11:22 | 45.85445 | 13.30531 | 8609 ft | 281 kts | 329° |
| 2026-04-29 11:22 | 45.86668 | 13.29897 | 9080 ft | 286 kts | 351° |
| 2026-04-29 11:22 | 45.88654 | 13.30238 | 9759 ft | 296 kts | 22° |
| 2026-04-29 11:22 | 45.90278 | 13.32067 | 10387 ft | 304 kts | 54° |
| 2026-04-29 11:23 | 45.91047 | 13.34888 | 10987 ft | 309 kts | 86° |
| 2026-04-29 11:23 | 45.90720 | 13.37907 | 11594 ft | 309 kts | 118° |
| 2026-04-29 11:23 | 45.89432 | 13.40373 | 12027 ft | 317 kts | 139° |
| 2026-04-29 11:23 | 45.87703 | 13.42486 | 12171 ft | 337 kts | 145° |
| 2026-04-29 11:24 | 45.85800 | 13.44623 | 12414 ft | 354 kts | 145° |
| 2026-04-29 11:24 | 45.83836 | 13.46821 | 12984 ft | 362 kts | 144° |
| 2026-04-29 11:24 | 45.81968 | 13.49289 | 13617 ft | 369 kts | 135° |
| 2026-04-29 11:24 | 45.80292 | 13.52126 | 14237 ft | 376 kts | 130° |
| 2026-04-29 11:25 | 45.78734 | 13.55173 | 14879 ft | 381 kts | 127° |
| 2026-04-29 11:25 | 45.77210 | 13.58308 | 15490 ft | 386 kts | 126° |
| 2026-04-29 11:25 | 45.75660 | 13.61473 | 16119 ft | 390 kts | 127° |
| 2026-04-29 11:25 | 45.74063 | 13.64630 | 16718 ft | 393 kts | 128° |
| 2026-04-29 11:26 | 45.70730 | 13.70915 | 17883 ft | 400 kts | 129° |
| 2026-04-29 11:26 | 45.69011 | 13.74069 | 18434 ft | 404 kts | 129° |
| 2026-04-29 11:26 | 45.67272 | 13.77245 | 18942 ft | 408 kts | 129° |
| 2026-04-29 11:27 | 45.65516 | 13.80456 | 19433 ft | 411 kts | 129° |
| 2026-04-29 11:27 | 45.63748 | 13.83696 | 19933 ft | 416 kts | 129° |
| 2026-04-29 11:27 | 45.61962 | 13.86976 | 20472 ft | 420 kts | 129° |
| 2026-04-29 11:27 | 45.60162 | 13.90289 | 21002 ft | 424 kts | 129° |
| 2026-04-29 11:28 | 45.58343 | 13.93640 | 21536 ft | 428 kts | 129° |
| 2026-04-29 11:28 | 45.56514 | 13.97006 | 22064 ft | 432 kts | 129° |
| 2026-04-29 11:28 | 45.54666 | 14.00409 | 22559 ft | 435 kts | 129° |
| 2026-04-29 11:28 | 45.52803 | 14.03835 | 23013 ft | 439 kts | 129° |
| 2026-04-29 11:29 | 45.50920 | 14.07284 | 23480 ft | 442 kts | 129° |
| 2026-04-29 11:29 | 45.49020 | 14.10749 | 23884 ft | 445 kts | 129° |
| 2026-04-29 11:29 | 45.47096 | 14.14216 | 24289 ft | 447 kts | 131° |
| 2026-04-29 11:29 | 45.45092 | 14.17622 | 24672 ft | 450 kts | 133° |
| 2026-04-29 11:30 | 45.43016 | 14.20969 | 25019 ft | 452 kts | 134° |
| 2026-04-29 11:30 | 45.40891 | 14.24294 | 25386 ft | 455 kts | 134° |
| 2026-04-29 11:30 | 45.38749 | 14.27615 | 25750 ft | 457 kts | 135° |
| 2026-04-29 11:30 | 45.36599 | 14.30960 | 26095 ft | 459 kts | 134° |
| 2026-04-29 11:31 | 45.34447 | 14.34335 | 26420 ft | 462 kts | 134° |
| 2026-04-29 11:31 | 45.32294 | 14.37745 | 26757 ft | 465 kts | 134° |
| 2026-04-29 11:31 | 45.30137 | 14.41193 | 27100 ft | 468 kts | 134° |
| 2026-04-29 11:31 | 45.27967 | 14.44674 | 27431 ft | 471 kts | 134° |
| 2026-04-29 11:32 | 45.25786 | 14.48160 | 27759 ft | 474 kts | 134° |
| 2026-04-29 11:32 | 45.23615 | 14.51613 | 28086 ft | 477 kts | 134° |
| 2026-04-29 11:32 | 45.21401 | 14.55119 | 28432 ft | 479 kts | 134° |
| 2026-04-29 11:32 | 45.19174 | 14.58637 | 28772 ft | 481 kts | 134° |
| 2026-04-29 11:33 | 45.16931 | 14.62175 | 29093 ft | 483 kts | 134° |
| 2026-04-29 11:33 | 45.14675 | 14.65727 | 29418 ft | 486 kts | 135° |
| 2026-04-29 11:33 | 45.12406 | 14.69297 | 29728 ft | 489 kts | 134° |
| 2026-04-29 11:33 | 45.10126 | 14.72884 | 30070 ft | 491 kts | 135° |
| 2026-04-29 11:34 | 45.07801 | 14.76541 | 30357 ft | 494 kts | 135° |
| 2026-04-29 11:34 | 45.05526 | 14.80112 | 30625 ft | 497 kts | 135° |
| 2026-04-29 11:34 | 45.03208 | 14.83749 | 30902 ft | 499 kts | 135° |
| 2026-04-29 11:34 | 45.00880 | 14.87395 | 31230 ft | 499 kts | 135° |
| 2026-04-29 11:35 | 44.98560 | 14.91025 | 31621 ft | 498 kts | 135° |
| 2026-04-29 11:35 | 44.96238 | 14.94654 | 32053 ft | 496 kts | 135° |
| 2026-04-29 11:35 | 44.93928 | 14.98258 | 32469 ft | 495 kts | 135° |
| 2026-04-29 11:35 | 44.91617 | 15.01858 | 32878 ft | 494 kts | 135° |
| 2026-04-29 11:36 | 44.89312 | 15.05442 | 33267 ft | 493 kts | 135° |
| 2026-04-29 11:36 | 44.87011 | 15.09021 | 33640 ft | 492 kts | 135° |
| 2026-04-29 11:36 | 44.84713 | 15.12585 | 33978 ft | 491 kts | 135° |
| 2026-04-29 11:36 | 44.82412 | 15.16142 | 34269 ft | 491 kts | 135° |
| 2026-04-29 11:37 | 44.80111 | 15.19696 | 34591 ft | 491 kts | 135° |
| 2026-04-29 11:37 | 44.77813 | 15.23247 | 34891 ft | 490 kts | 135° |
| 2026-04-29 11:37 | 44.75516 | 15.26791 | 35176 ft | 490 kts | 135° |
| 2026-04-29 11:37 | 44.73219 | 15.30332 | 35450 ft | 490 kts | 135° |
| 2026-04-29 11:38 | 44.70920 | 15.33876 | 35736 ft | 490 kts | 135° |
| 2026-04-29 11:38 | 44.68621 | 15.37412 | 36006 ft | 490 kts | 135° |
| 2026-04-29 11:38 | 44.66321 | 15.40946 | 36280 ft | 490 kts | 135° |
| 2026-04-29 11:38 | 44.64019 | 15.44480 | 36541 ft | 490 kts | 135° |
| 2026-04-29 11:39 | 44.61718 | 15.48008 | 36808 ft | 490 kts | 135° |
| 2026-04-29 11:39 | 44.59414 | 15.51535 | 37046 ft | 491 kts | 135° |
| 2026-04-29 11:39 | 44.54798 | 15.58577 | 37132 ft | 490 kts | 135° |
| 2026-04-29 11:40 | 44.50175 | 15.65609 | 37116 ft | 491 kts | 135° |
| 2026-04-29 11:40 | 44.45553 | 15.72626 | 37119 ft | 490 kts | 135° |
| 2026-04-29 11:41 | 44.40935 | 15.79621 | 37109 ft | 489 kts | 135° |
| 2026-04-29 11:41 | 44.36316 | 15.86606 | 37113 ft | 489 kts | 135° |
| 2026-04-29 11:42 | 44.31683 | 15.93593 | 37112 ft | 490 kts | 135° |
| 2026-04-29 11:42 | 44.27045 | 16.00570 | 37112 ft | 490 kts | 135° |
| 2026-04-29 11:43 | 44.22408 | 16.07534 | 37088 ft | 490 kts | 136° |
| 2026-04-29 11:43 | 44.17761 | 16.14478 | 37104 ft | 489 kts | 136° |
| 2026-04-29 11:44 | 44.13111 | 16.21406 | 37102 ft | 490 kts | 136° |
| 2026-04-29 11:44 | 44.08457 | 16.28323 | 37101 ft | 490 kts | 136° |
| 2026-04-29 11:45 | 44.03799 | 16.35249 | 37095 ft | 490 kts | 136° |
| 2026-04-29 11:45 | 43.99180 | 16.42121 | 37073 ft | 490 kts | 136° |
| 2026-04-29 11:46 | 43.94522 | 16.49011 | 37111 ft | 490 kts | 136° |
| 2026-04-29 11:46 | 43.89853 | 16.55884 | 37093 ft | 489 kts | 136° |
| 2026-04-29 11:47 | 43.85187 | 16.62755 | 37092 ft | 489 kts | 136° |
| 2026-04-29 11:47 | 43.80519 | 16.69601 | 37096 ft | 489 kts | 136° |
| 2026-04-29 11:48 | 43.75840 | 16.76441 | 37091 ft | 489 kts | 136° |
| 2026-04-29 11:48 | 43.71167 | 16.83275 | 37086 ft | 489 kts | 136° |
| 2026-04-29 11:49 | 43.66483 | 16.90101 | 37083 ft | 489 kts | 136° |
| 2026-04-29 11:49 | 43.61777 | 16.96860 | 37099 ft | 488 kts | 138° |
| 2026-04-29 11:50 | 43.56864 | 17.03296 | 37095 ft | 487 kts | 141° |
| 2026-04-29 11:50 | 43.51849 | 17.09558 | 37089 ft | 487 kts | 141° |
| 2026-04-29 11:51 | 43.46856 | 17.15861 | 37086 ft | 487 kts | 140° |
| 2026-04-29 11:51 | 43.41899 | 17.22229 | 37111 ft | 487 kts | 140° |
| 2026-04-29 11:52 | 43.36948 | 17.28602 | 37100 ft | 487 kts | 140° |
| 2026-04-29 11:52 | 43.31988 | 17.34953 | 37106 ft | 487 kts | 140° |
| 2026-04-29 11:53 | 43.27018 | 17.41281 | 37087 ft | 487 kts | 140° |
| 2026-04-29 11:53 | 43.22076 | 17.47551 | 37106 ft | 487 kts | 140° |
| 2026-04-29 11:54 | 43.17073 | 17.53893 | 37107 ft | 487 kts | 140° |
| 2026-04-29 11:54 | 43.12136 | 17.60142 | 37104 ft | 486 kts | 140° |
| 2026-04-29 11:55 | 43.07164 | 17.66421 | 37108 ft | 486 kts | 140° |
| 2026-04-29 11:55 | 43.02193 | 17.72687 | 37088 ft | 486 kts | 140° |
| 2026-04-29 11:56 | 42.97182 | 17.78981 | 37104 ft | 486 kts | 140° |
| 2026-04-29 11:56 | 42.92222 | 17.85185 | 37094 ft | 487 kts | 140° |
| 2026-04-29 11:57 | 42.87230 | 17.91423 | 37103 ft | 487 kts | 140° |
| 2026-04-29 11:57 | 42.82236 | 17.97660 | 37106 ft | 487 kts | 140° |
| 2026-04-29 11:58 | 42.77242 | 18.03883 | 37088 ft | 487 kts | 140° |
| 2026-04-29 11:58 | 42.72244 | 18.10090 | 37109 ft | 486 kts | 140° |
| 2026-04-29 11:59 | 42.67239 | 18.16286 | 37121 ft | 486 kts | 140° |
| 2026-04-29 11:59 | 42.62236 | 18.22471 | 37128 ft | 486 kts | 140° |
| 2026-04-29 12:00 | 42.57379 | 18.28301 | 35967 ft | 489 kts | 143° |
| 2026-04-29 12:00 | 42.54733 | 18.31225 | 34547 ft | 491 kts | 145° |
| 2026-04-29 12:00 | 42.52054 | 18.34061 | 33268 ft | 487 kts | 145° |
| 2026-04-29 12:01 | 42.49392 | 18.36837 | 32333 ft | 476 kts | 145° |
| 2026-04-29 12:01 | 42.46840 | 18.39515 | 31922 ft | 454 kts | 145° |
| 2026-04-29 12:01 | 42.44393 | 18.42114 | 31140 ft | 443 kts | 144° |
| 2026-04-29 12:01 | 42.41981 | 18.44705 | 30599 ft | 439 kts | 144° |
| 2026-04-29 12:02 | 42.39624 | 18.47259 | 30361 ft | 431 kts | 144° |
| 2026-04-29 12:02 | 42.37282 | 18.49799 | 29796 ft | 431 kts | 144° |
| 2026-04-29 12:02 | 42.34949 | 18.52327 | 29312 ft | 429 kts | 144° |
| 2026-04-29 12:02 | 42.32624 | 18.54837 | 28816 ft | 427 kts | 144° |
| 2026-04-29 12:03 | 42.30308 | 18.57330 | 28332 ft | 425 kts | 144° |
| 2026-04-29 12:03 | 42.28000 | 18.59814 | 27856 ft | 423 kts | 144° |
| 2026-04-29 12:03 | 42.25703 | 18.62286 | 27382 ft | 421 kts | 144° |
| 2026-04-29 12:03 | 42.23415 | 18.64743 | 26924 ft | 420 kts | 144° |
| 2026-04-29 12:04 | 42.21131 | 18.67192 | 26467 ft | 418 kts | 144° |
| 2026-04-29 12:04 | 42.18855 | 18.69627 | 26009 ft | 417 kts | 144° |
| 2026-04-29 12:04 | 42.16581 | 18.72056 | 25541 ft | 416 kts | 144° |
| 2026-04-29 12:04 | 42.14346 | 18.74445 | 25095 ft | 416 kts | 144° |
| 2026-04-29 12:05 | 42.12078 | 18.76866 | 24629 ft | 415 kts | 144° |
| 2026-04-29 12:05 | 42.09818 | 18.79276 | 24167 ft | 414 kts | 144° |
| 2026-04-29 12:05 | 42.07557 | 18.81686 | 23685 ft | 415 kts | 144° |
| 2026-04-29 12:05 | 42.05299 | 18.84096 | 23140 ft | 414 kts | 144° |
| 2026-04-29 12:06 | 42.03052 | 18.86489 | 22664 ft | 411 kts | 144° |
| 2026-04-29 12:06 | 42.00816 | 18.88866 | 22173 ft | 409 kts | 144° |
| 2026-04-29 12:06 | 41.98591 | 18.91231 | 21671 ft | 407 kts | 144° |
| 2026-04-29 12:06 | 41.96373 | 18.93582 | 21177 ft | 405 kts | 144° |
| 2026-04-29 12:07 | 41.94165 | 18.95915 | 20671 ft | 403 kts | 144° |
| 2026-04-29 12:07 | 41.91966 | 18.98237 | 20175 ft | 401 kts | 144° |
| 2026-04-29 12:07 | 41.89775 | 19.00556 | 19672 ft | 400 kts | 144° |
| 2026-04-29 12:07 | 41.87604 | 19.02859 | 19254 ft | 396 kts | 144° |
| 2026-04-29 12:08 | 41.85445 | 19.05146 | 18784 ft | 393 kts | 144° |
| 2026-04-29 12:08 | 41.84024 | 19.06649 | 18408 ft | 393 kts | 144° |
| 2026-04-29 12:08 | 41.81886 | 19.08909 | 17998 ft | 388 kts | 143° |
| 2026-04-29 12:08 | 41.79767 | 19.11146 | 17428 ft | 386 kts | 143° |
| 2026-04-29 12:09 | 41.77670 | 19.13352 | 16906 ft | 383 kts | 144° |
| 2026-04-29 12:09 | 41.75580 | 19.15546 | 16500 ft | 378 kts | 143° |
| 2026-04-29 12:09 | 41.73511 | 19.17720 | 15960 ft | 377 kts | 143° |
| 2026-04-29 12:09 | 41.71464 | 19.19870 | 15483 ft | 374 kts | 143° |
| 2026-04-29 12:10 | 41.69373 | 19.21859 | 15233 ft | 361 kts | 153° |
| 2026-04-29 12:10 | 41.67196 | 19.23414 | 15036 ft | 350 kts | 155° |
| 2026-04-29 12:10 | 41.65043 | 19.24892 | 14713 ft | 344 kts | 155° |
| 2026-04-29 12:10 | 41.62923 | 19.26341 | 14410 ft | 340 kts | 155° |
| 2026-04-29 12:11 | 41.60825 | 19.27770 | 14094 ft | 338 kts | 155° |
| 2026-04-29 12:11 | 41.58737 | 19.29187 | 13784 ft | 336 kts | 155° |
| 2026-04-29 12:11 | 41.56659 | 19.30591 | 13427 ft | 334 kts | 155° |
| 2026-04-29 12:11 | 41.54591 | 19.31976 | 13084 ft | 332 kts | 155° |
| 2026-04-29 12:12 | 41.52530 | 19.33347 | 12746 ft | 329 kts | 155° |
| 2026-04-29 12:12 | 41.50487 | 19.34699 | 12415 ft | 327 kts | 155° |
| 2026-04-29 12:12 | 41.48454 | 19.36038 | 12084 ft | 325 kts | 155° |
| 2026-04-29 12:12 | 41.46433 | 19.37360 | 11757 ft | 323 kts | 155° |
| 2026-04-29 12:13 | 41.44449 | 19.38649 | 11436 ft | 320 kts | 155° |
| 2026-04-29 12:13 | 41.42423 | 19.39955 | 11115 ft | 318 kts | 155° |
| 2026-04-29 12:13 | 41.40462 | 19.41211 | 10800 ft | 316 kts | 155° |
| 2026-04-29 12:13 | 41.38483 | 19.42471 | 10486 ft | 314 kts | 155° |
| 2026-04-29 12:14 | 41.36525 | 19.43711 | 10176 ft | 310 kts | 155° |
| 2026-04-29 12:14 | 41.34588 | 19.44932 | 9856 ft | 306 kts | 155° |
| 2026-04-29 12:14 | 41.32674 | 19.46138 | 9491 ft | 303 kts | 155° |
| 2026-04-29 12:14 | 41.30781 | 19.47338 | 9158 ft | 300 kts | 155° |
| 2026-04-29 12:15 | 41.28910 | 19.48525 | 8825 ft | 296 kts | 155° |
| 2026-04-29 12:15 | 41.27063 | 19.49696 | 8494 ft | 293 kts | 155° |
| 2026-04-29 12:15 | 41.25235 | 19.50848 | 8161 ft | 289 kts | 155° |
| 2026-04-29 12:15 | 41.23425 | 19.51987 | 7844 ft | 286 kts | 155° |
| 2026-04-29 12:16 | 41.21637 | 19.53123 | 7516 ft | 284 kts | 155° |
| 2026-04-29 12:16 | 41.19862 | 19.54248 | 7197 ft | 281 kts | 155° |
| 2026-04-29 12:16 | 41.18106 | 19.55357 | 6891 ft | 279 kts | 155° |
| 2026-04-29 12:16 | 41.16360 | 19.56453 | 6570 ft | 276 kts | 155° |
| 2026-04-29 12:17 | 41.14625 | 19.57533 | 6241 ft | 274 kts | 155° |
| 2026-04-29 12:17 | 41.12924 | 19.58663 | 5907 ft | 272 kts | 147° |
| 2026-04-29 12:17 | 41.11647 | 19.60473 | 5588 ft | 271 kts | 120° |
| 2026-04-29 12:17 | 41.11158 | 19.62877 | 5261 ft | 274 kts | 93° |
| 2026-04-29 12:18 | 41.11270 | 19.65388 | 4939 ft | 273 kts | 86° |
| 2026-04-29 12:18 | 41.11469 | 19.67889 | 4596 ft | 273 kts | 85° |
| 2026-04-29 12:18 | 41.11687 | 19.70383 | 4278 ft | 273 kts | 85° |
| 2026-04-29 12:18 | 41.12156 | 19.72794 | 4010 ft | 269 kts | 63° |
| 2026-04-29 12:19 | 41.13399 | 19.74511 | 4000 ft | 253 kts | 31° |
| 2026-04-29 12:19 | 41.15016 | 19.75220 | 4001 ft | 240 kts | 2° |
| 2026-04-29 12:19 | 41.16643 | 19.75170 | 4020 ft | 230 kts | 356° |
| 2026-04-29 12:19 | 41.18221 | 19.75092 | 4008 ft | 225 kts | 356° |
| 2026-04-29 12:20 | 41.19788 | 19.74953 | 4012 ft | 227 kts | 354° |
| 2026-04-29 12:20 | 41.21327 | 19.74755 | 4002 ft | 225 kts | 352° |
| 2026-04-29 12:20 | 41.22894 | 19.74536 | 3792 ft | 227 kts | 353° |
| 2026-04-29 12:20 | 41.24429 | 19.74325 | 3505 ft | 218 kts | 351° |
| 2026-04-29 12:21 | 41.25936 | 19.74119 | 3178 ft | 211 kts | 352° |
| 2026-04-29 12:21 | 41.27349 | 19.73929 | 2915 ft | 204 kts | 352° |
| 2026-04-29 12:21 | 41.28762 | 19.73740 | 2639 ft | 203 kts | 352° |
| 2026-04-29 12:21 | 41.30178 | 19.73549 | 2370 ft | 200 kts | 351° |
| 2026-04-29 12:22 | 41.31525 | 19.73368 | 2128 ft | 192 kts | 351° |
| 2026-04-29 12:22 | 41.32786 | 19.73204 | 1872 ft | 172 kts | 352° |
| 2026-04-29 12:22 | 41.33927 | 19.73057 | 1580 ft | 158 kts | 350° |
| 2026-04-29 12:22 | 41.35013 | 19.72913 | 1351 ft | 154 kts | 352° |
| 2026-04-29 12:23 | 41.36066 | 19.72773 | 1109 ft | 151 kts | 349° |
| 2026-04-29 12:23 | 41.37102 | 19.72633 | 887 ft | 149 kts | 351° |
| 2026-04-29 12:23 | 41.38130 | 19.72494 | 670 ft | 148 kts | 349° |
| 2026-04-29 12:23 | 41.39157 | 19.72363 | 409 ft | 148 kts | 350° |
| 2026-04-29 12:24 | 41.40188 | 19.72221 | 208 ft | 149 kts | 352° |
| 2026-04-29 12:24 | 41.41169 | 19.72095 | 130 ft | 123 kts | 353° |
| 2026-04-29 12:24 | 41.41851 | 19.72002 | 124 ft | 74 kts | 354° |
| 2026-04-29 12:24 | 41.42203 | 19.71951 | 120 ft | 31 kts | 354° |
| 2026-04-29 12:25 | 41.42290 | 19.71875 | 120 ft | 14 kts | 263° |
| 2026-04-29 12:25 | 41.42275 | 19.71751 | 116 ft | 11 kts | 262° |
| 2026-04-29 12:25 | 41.42253 | 19.71563 | 120 ft | 9 kts | 247° |
| 2026-04-29 12:26 | 41.42199 | 19.71547 | 118 ft | 8 kts | 176° |
| 2026-04-29 12:26 | 41.42139 | 19.71555 | 118 ft | 9 kts | 173° |
| 2026-04-29 12:26 | 41.42093 | 19.71562 | 120 ft | 0 kts | 174° |
| 2026-04-29 12:26 | 41.42089 | 19.71562 | 122 ft | 1 kts | 174° |
| 2026-04-29 12:27 | 41.42077 | 19.71564 | 122 ft | 2 kts | 174° |
| 2026-04-29 12:27 | 41.42056 | 19.71566 | 121 ft | 3 kts | 174° |
| 2026-04-29 12:27 | 41.42028 | 19.71570 | 118 ft | 5 kts | 174° |
| 2026-04-29 12:27 | 41.41997 | 19.71574 | 122 ft | 4 kts | 174° |
| 2026-04-29 12:28 | 41.41972 | 19.71577 | 120 ft | 5 kts | 176° |
| 2026-04-29 12:28 | 41.41951 | 19.71536 | 122 ft | 6 kts | 259° |
| 2026-04-29 12:28 | 41.41949 | 19.71519 | 121 ft | 0 kts | 264° |